Terminal Aerodrome Forecast
Issued by NWS

Home | Current Version | Previous Version | Text Only | Print | Product List | Glossary On
Versions: 1 2 3 4 5 6 7 8 9 10 11 12 13 14 15 16 17 18 19 20 21 22 23 24 25 26 27 28 29 30 31 32 33 34 35 36 37 38 39 40 41 42 43 44
941
FTUS45 KBOU 300538
TAFAPA
TAF
KAPA 300538Z 3006/0106 19006KT P6SM FEW100 SCT200
     FM301500 VRB05KT P6SM FEW200
     FM301900 07006KT P6SM FEW100 SCT200
     FM010200 19008KT P6SM FEW200=

USA.gov is the U.S. government's official web portal to all federal, state and local government web resources and services.